Murree Weather



Murree's Current Weather

Temprature 26.25o clear sky

clear sky

Rain: 0 %

Min Temprature26.25o
Max Temprature26.25o
Humidity35
Wind Speed2.73 m/h
Sun Rise05:12:09
Sun Set19:13:23
Current Time: 24-Jul-2021 14:49:12
Lat/Lon: 33.9073, 73.393




Murree's Geo Location



Murree's Weather Forecast

Time Overall Temp Min Temp Max Temp Humidity Wind Speed Rain
24-Jul-2021 (Sat)
17:00:00 clear sky 26.450 26.450 26.850 36 1.92 m/h 0 %
20:00:00 clear sky 23.180 21.640 23.180 45 0.88 m/h 0 %
23:00:00 clear sky 20.080 20.080 20.080 53 2.28 m/h 0 %
25-Jul-2021 (Sun)
02:00:00 clear sky 18.980 18.980 18.980 56 2.47 m/h 0 %
05:00:00 scattered clouds 18.470 18.470 18.470 57 2.47 m/h 0 %
08:00:00 broken clouds 23.450 23.450 23.450 47 0.98 m/h 0 %
11:00:00 scattered clouds 26.870 26.870 26.870 38 2.64 m/h 0 %
14:00:00 broken clouds 27.820 27.820 27.820 37 2.75 m/h 0 %
17:00:00 broken clouds 27.380 27.380 27.380 38 1.64 m/h 0 %
20:00:00 broken clouds 23.010 23.010 23.010 49 0.98 m/h 0 %
23:00:00 broken clouds 21.210 21.210 21.210 55 1.05 m/h 0 %
26-Jul-2021 (Mon)
02:00:00 scattered clouds 19.710 19.710 19.710 62 1.18 m/h 0 %
05:00:00 broken clouds 18.830 18.830 18.830 68 1.7 m/h 0 %
08:00:00 overcast clouds 22.950 22.950 22.950 60 1.33 m/h 0 %
11:00:00 light rain 25.680 25.680 25.680 52 2.83 m/h 44 %
14:00:00 light rain 24.890 24.890 24.890 57 1.65 m/h 40 %
17:00:00 light rain 22.060 22.060 22.060 69 1.52 m/h 20 %
20:00:00 broken clouds 21.650 21.650 21.650 67 2.35 m/h 0 %
23:00:00 broken clouds 20.730 20.730 20.730 71 1.77 m/h 0 %
27-Jul-2021 (Tue)
02:00:00 light rain 19.540 19.540 19.540 81 0.68 m/h 140 %
05:00:00 moderate rain 18.990 18.990 18.990 82 1.35 m/h 319 %
08:00:00 light rain 19.220 19.220 19.220 84 1.6 m/h 89 %
11:00:00 light rain 22.510 22.510 22.510 71 3.31 m/h 81 %
14:00:00 moderate rain 22.650 22.650 22.650 70 3.02 m/h 466 %
17:00:00 moderate rain 21.420 21.420 21.420 76 1.94 m/h 535 %
20:00:00 moderate rain 18.530 18.530 18.530 87 1.57 m/h 813 %
23:00:00 moderate rain 17.390 17.390 17.390 92 2.03 m/h 976 %
28-Jul-2021 (Wed)
02:00:00 heavy intensity rain 16.220 16.220 16.220 98 2.39 m/h 3,899 %
05:00:00 heavy intensity rain 15.390 15.390 15.390 95 1.91 m/h 2,801 %
08:00:00 moderate rain 15.040 15.040 15.040 94 1.14 m/h 461 %
11:00:00 moderate rain 14.930 14.930 14.930 95 0.79 m/h 836 %
14:00:00 light rain 15.620 15.620 15.620 96 1.05 m/h 206 %
17:00:00 moderate rain 15.550 15.550 15.550 97 1.4 m/h 451 %
20:00:00 light rain 15.490 15.490 15.490 94 1.73 m/h 141 %
23:00:00 broken clouds 15.050 15.050 15.050 91 1.73 m/h 0 %
29-Jul-2021 (Thu)
02:00:00 light rain 14.730 14.730 14.730 90 0.43 m/h 18 %
05:00:00 light rain 14.250 14.250 14.250 93 0.32 m/h 58 %
08:00:00 light rain 16.140 16.140 16.140 86 0.31 m/h 74 %
11:00:00 light rain 19.240 19.240 19.240 77 2.08 m/h 44 %
14:00:00 light rain 20.550 20.550 20.550 72 2.18 m/h 146 %

Famous Cities (60)